Time;durP1;ratioP1;P1;durP2;ratioP2;P2;SDS_P1;SDS_P2;PMS_P1;PMS_P2;Temp;Humidity;BMP_temperature;BMP_pressure;BME280_temperature;BME280_humidity;BME280_pressure;Samples;Min_cycle;Max_cycle;Signal;HPM_P1;HPM_P2
2023/08/11 00:01:26;;;;;;;13.60;4.40;;;;;;;11.55;88.96;100405.14;106647;1285;60491;-66
2023/08/11 00:04:14;;;;;;;12.70;3.90;;;;;;;11.51;89.19;100405.42;106615;1285;60297;-65
2023/08/11 00:07:02;;;;;;;11.80;3.80;;;;;;;11.48;89.29;100396.96;106726;1285;71896;-63
2023/08/11 00:09:49;;;;;;;14.30;4.60;;;;;;;11.46;89.49;100398.70;106537;1285;68830;-63
2023/08/11 00:12:35;;;;;;;13.60;4.60;;;;;;;11.44;89.62;100400.27;106636;1285;72694;-62
2023/08/11 00:15:22;;;;;;;15.70;4.10;;;;;;;11.42;89.92;100396.90;106598;1286;58013;-63
2023/08/11 00:18:09;;;;;;;12.90;4.00;;;;;;;11.41;89.79;100403.20;106617;1286;60046;-63
2023/08/11 00:20:55;;;;;;;13.00;4.50;;;;;;;11.39;89.88;100405.08;106565;1285;74025;-63
2023/08/11 00:23:43;;;;;;;13.80;4.40;;;;;;;11.38;89.78;100406.73;106702;1285;68753;-63
2023/08/11 00:26:30;;;;;;;11.50;3.90;;;;;;;11.39;90.12;100406.13;106708;1285;73387;-65
2023/08/11 00:29:16;;;;;;;9.50;3.60;;;;;;;11.42;89.96;100407.54;106669;1285;58782;-63
2023/08/11 00:32:03;;;;;;;10.10;3.30;;;;;;;11.47;89.44;100409.15;106553;1286;61130;-63
2023/08/11 00:34:50;;;;;;;14.10;3.50;;;;;;;11.51;89.27;100412.88;106745;1285;71846;-63
2023/08/11 00:37:36;;;;;;;10.60;3.40;;;;;;;11.56;89.01;100412.86;106744;1285;69015;-63
2023/08/11 00:40:23;;;;;;;13.00;4.10;;;;;;;11.61;89.12;100410.91;106697;1285;72691;-63
2023/08/11 00:43:09;;;;;;;9.40;3.50;;;;;;;11.65;88.92;100415.57;106695;1285;59682;-64
2023/08/11 00:45:56;;;;;;;11.30;3.60;;;;;;;11.68;88.92;100418.16;106668;1285;61340;-63
2023/08/11 00:48:43;;;;;;;15.20;4.00;;;;;;;11.71;89.01;100418.66;106727;1285;72975;-62
2023/08/11 00:51:30;;;;;;;11.00;3.80;;;;;;;11.75;88.69;100421.73;106629;1285;66688;-63
2023/08/11 00:54:17;;;;;;;12.20;3.90;;;;;;;11.78;88.81;100423.46;106628;1285;72699;-64
2023/08/11 00:57:03;;;;;;;8.80;3.40;;;;;;;11.81;88.96;100423.23;106516;1286;59146;-64
2023/08/11 00:59:50;;;;;;;10.00;3.80;;;;;;;11.83;88.93;100424.14;106768;1285;58945;-64
2023/08/11 01:02:36;;;;;;;14.00;4.50;;;;;;;11.83;88.76;100422.88;106459;1285;74269;-65
2023/08/11 01:05:27;;;;;;;12.80;4.30;;;;;;;11.85;88.80;100423.61;106716;1285;68050;-64
2023/08/11 01:08:29;;;;;;;9.60;3.40;;;;;;;11.87;88.73;100422.03;106525;1286;72509;-64
2023/08/11 01:11:40;;;;;;;14.30;3.90;;;;;;;11.89;88.82;100421.55;106466;1286;58589;-66
2023/08/11 01:14:36;;;;;;;12.00;4.00;;;;;;;11.91;88.57;100417.45;106546;1286;61286;-65
2023/08/11 01:17:24;;;;;;;10.90;3.70;;;;;;;11.94;88.61;100420.85;106716;1285;72950;-65
2023/08/11 01:20:11;;;;;;;11.00;3.90;;;;;;;11.97;88.51;100418.89;106633;1285;68021;-64
2023/08/11 01:23:01;;;;;;;10.30;4.00;;;;;;;11.98;88.64;100414.88;106627;1285;73449;-65
2023/08/11 01:25:48;;;;;;;11.80;3.70;;;;;;;11.97;88.60;100411.73;105859;1286;1002464;-67
2023/08/11 01:28:35;;;;;;;11.50;3.70;;;;;;;11.94;88.27;100408.20;106667;1285;58755;-65
2023/08/11 01:31:21;;;;;;;10.50;3.60;;;;;;;11.93;88.06;100408.13;106600;1285;72916;-65
2023/08/11 01:34:09;;;;;;;10.00;3.40;;;;;;;11.91;88.05;100404.00;106577;1286;67495;-65
2023/08/11 01:37:01;;;;;;;9.80;3.30;;;;;;;11.88;88.18;100407.19;106679;1285;73810;-65
2023/08/11 01:39:48;;;;;;;12.60;3.20;;;;;;;11.87;87.92;100404.29;106419;1286;57383;-65
2023/08/11 01:42:34;;;;;;;10.80;3.80;;;;;;;11.86;87.89;100398.35;106521;1286;60186;-65
2023/08/11 01:45:29;;;;;;;10.00;3.10;;;;;;;11.85;87.42;100399.60;106746;1285;72903;-67
2023/08/11 01:48:18;;;;;;;9.50;2.70;;;;;;;11.85;87.12;100400.00;106714;1285;67864;-63
2023/08/11 01:51:07;;;;;;;8.20;3.20;;;;;;;11.86;87.15;100399.94;106619;1285;72618;-64
2023/08/11 01:53:54;;;;;;;9.00;2.90;;;;;;;11.87;86.79;100400.33;106688;1285;60779;-65
2023/08/11 01:56:42;;;;;;;10.50;2.90;;;;;;;11.90;86.57;100395.15;106605;1285;61163;-64
2023/08/11 01:59:29;;;;;;;8.90;3.00;;;;;;;11.91;86.24;100392.55;106679;1286;73160;-64
2023/08/11 02:02:15;;;;;;;9.30;2.90;;;;;;;11.93;86.20;100393.86;106650;1285;67658;-66
2023/08/11 02:05:01;;;;;;;9.90;3.10;;;;;;;11.93;86.31;100393.88;105858;1286;1002499;-68
2023/08/11 02:07:47;;;;;;;8.10;2.60;;;;;;;11.93;86.30;100393.16;105886;1285;1002262;-66
2023/08/11 02:10:34;;;;;;;11.50;3.40;;;;;;;11.90;86.40;100391.19;106736;1285;60026;-65
2023/08/11 02:13:20;;;;;;;9.20;2.60;;;;;;;11.89;86.38;100390.94;106635;1285;74067;-64
2023/08/11 02:16:06;;;;;;;9.20;2.80;;;;;;;11.88;86.46;100387.32;106623;1285;66605;-65
2023/08/11 02:18:52;;;;;;;10.00;3.20;;;;;;;11.88;86.37;100389.05;106682;1285;73570;-65
2023/08/11 02:21:39;;;;;;;13.00;3.10;;;;;;;11.88;86.53;100388.88;106676;1285;57477;-64
2023/08/11 02:24:25;;;;;;;10.00;3.00;;;;;;;11.88;86.44;100388.70;106734;1285;61187;-65
2023/08/11 02:27:13;;;;;;;10.00;2.90;;;;;;;11.89;86.50;100392.23;106706;1285;72893;-64
2023/08/11 02:29:59;;;;;;;9.80;2.80;;;;;;;11.88;86.22;100394.59;106692;1285;67897;-66
2023/08/11 02:32:46;;;;;;;9.80;2.70;;;;;;;11.89;86.06;100395.73;106671;1285;72400;-64
2023/08/11 02:35:35;;;;;;;11.00;2.90;;;;;;;11.90;86.03;100396.20;106681;1285;60475;-65
2023/08/11 02:38:21;;;;;;;11.40;3.10;;;;;;;11.92;86.10;100396.97;106718;1285;60313;-64
2023/08/11 02:41:08;;;;;;;9.80;2.70;;;;;;;11.94;85.82;100401.82;106730;1285;74126;-63
2023/08/11 02:43:54;;;;;;;11.10;3.10;;;;;;;11.97;85.76;100394.67;106770;1285;68751;-64
2023/08/11 02:46:40;;;;;;;9.60;2.80;;;;;;;11.99;85.59;100394.54;106707;1285;73454;-62
2023/08/11 02:49:27;;;;;;;11.50;3.00;;;;;;;12.00;85.58;100395.33;106634;1286;58925;-63
2023/08/11 02:52:13;;;;;;;10.40;3.10;;;;;;;11.99;85.80;100396.86;105953;1285;1003015;-63
2023/08/11 02:54:59;;;;;;;10.00;3.20;;;;;;;11.98;85.79;100400.31;106682;1289;72835;-63
2023/08/11 02:57:45;;;;;;;11.80;3.50;;;;;;;11.97;85.93;100396.84;106692;1285;68142;-62
2023/08/11 03:00:33;;;;;;;10.50;3.40;;;;;;;11.96;86.15;100400.48;106702;1285;72566;-65
2023/08/11 03:03:19;;;;;;;10.00;3.60;;;;;;;11.96;86.23;100400.30;106599;1285;58424;-65
2023/08/11 03:06:05;;;;;;;10.00;3.70;;;;;;;11.95;86.56;100402.10;106561;1285;61454;-64
2023/08/11 03:08:52;;;;;;;9.70;3.40;;;;;;;11.92;86.48;100395.88;106615;1285;74159;-65
2023/08/11 03:11:38;;;;;;;9.90;3.40;;;;;;;11.92;87.09;100400.19;106720;1285;69503;-64
2023/08/11 03:14:24;;;;;;;11.40;3.70;;;;;;;11.88;86.99;100395.34;106623;1286;72772;-65
2023/08/11 03:17:13;;;;;;;9.20;2.80;;;;;;;11.84;87.18;100396.88;106702;1285;58365;-64
2023/08/11 03:19:59;;;;;;;9.70;3.20;;;;;;;11.79;87.29;100393.71;106698;1285;58775;-64
2023/08/11 03:22:46;;;;;;;15.90;3.70;;;;;;;11.75;87.32;100396.98;106718;1285;73034;-64
2023/08/11 03:25:34;;;;;;;11.10;3.60;;;;;;;11.71;87.64;100396.98;106561;1285;66961;-64
2023/08/11 03:28:20;;;;;;;9.90;3.40;;;;;;;11.67;87.85;100396.77;106686;1285;72706;-64
2023/08/11 03:31:07;;;;;;;9.40;3.00;;;;;;;11.63;87.89;100396.54;106687;1285;57872;-63
2023/08/11 03:33:57;;;;;;;9.80;3.40;;;;;;;11.59;87.88;100398.09;106613;1285;61567;-64
2023/08/11 03:36:44;;;;;;;8.00;3.00;;;;;;;11.54;87.63;100393.10;106710;1285;74364;-64
2023/08/11 03:39:31;;;;;;;11.00;3.40;;;;;;;11.52;87.74;100396.98;106702;1285;66873;-64
2023/08/11 03:42:17;;;;;;;12.50;3.70;;;;;;;11.51;87.69;100398.65;106582;1286;70443;-66
2023/08/11 03:45:04;;;;;;;12.00;3.60;;;;;;;11.51;87.67;100402.45;106688;1285;59525;-62
2023/08/11 03:47:51;;;;;;;11.00;3.10;;;;;;;11.50;87.59;100400.22;106541;1286;60234;-63
2023/08/11 03:50:41;;;;;;;11.00;3.10;;;;;;;11.50;87.60;100407.44;106697;1285;71856;-63
2023/08/11 03:53:29;;;;;;;9.70;3.00;;;;;;;11.49;87.67;100410.20;106739;1285;66802;-62
2023/08/11 03:56:15;;;;;;;8.80;3.00;;;;;;;11.47;87.55;100410.52;106524;1285;74149;-65
2023/08/11 03:59:03;;;;;;;7.80;2.20;;;;;;;11.46;87.70;100410.80;106559;1286;59517;-64
2023/08/11 04:01:50;;;;;;;9.80;2.90;;;;;;;11.45;87.52;100410.91;106598;1285;61412;-63
2023/08/11 04:04:37;;;;;;;9.20;2.40;;;;;;;11.46;87.19;100415.90;106619;1286;72737;-65
2023/08/11 04:07:23;;;;;;;7.90;2.50;;;;;;;11.49;87.00;100411.83;106697;1286;66583;-64
2023/08/11 04:10:11;;;;;;;8.60;2.70;;;;;;;11.51;86.83;100415.89;106680;1285;74386;-64
2023/08/11 04:12:57;;;;;;;9.70;2.70;;;;;;;11.54;86.72;100415.83;106690;1285;57565;-64
2023/08/11 04:15:45;;;;;;;8.60;2.30;;;;;;;11.57;86.45;100412.80;106691;1285;61360;-63
2023/08/11 04:18:31;;;;;;;7.60;2.80;;;;;;;11.60;86.02;100416.88;106622;1285;74323;-73
2023/08/11 04:21:18;;;;;;;8.40;2.60;;;;;;;11.63;85.65;100412.88;106568;1285;69002;-64
2023/08/11 04:24:04;;;;;;;9.00;2.40;;;;;;;11.68;85.45;100414.66;106556;1285;72519;-64
2023/08/11 04:26:51;;;;;;;9.20;2.50;;;;;;;11.72;84.76;100412.56;106510;1286;60483;-65
2023/08/11 04:29:38;;;;;;;8.00;2.50;;;;;;;11.78;84.73;100408.73;106514;1286;61343;-66
2023/08/11 04:32:24;;;;;;;9.60;2.30;;;;;;;11.84;84.75;100414.35;106485;1286;73328;-65
2023/08/11 04:35:11;;;;;;;8.70;2.70;;;;;;;11.89;84.25;100417.67;106510;1285;68675;-67
2023/08/11 04:37:58;;;;;;;9.40;2.60;;;;;;;11.94;84.01;100418.67;106646;1286;72704;-63
2023/08/11 04:40:52;;;;;;;9.90;2.90;;;;;;;12.02;83.78;100421.67;106618;1285;59604;-67
2023/08/11 04:43:38;;;;;;;10.30;2.80;;;;;;;12.08;83.54;100420.61;106597;1285;60200;-66
2023/08/11 04:46:25;;;;;;;9.50;2.60;;;;;;;12.17;83.05;100420.13;106510;1286;73155;-67
2023/08/11 04:49:12;;;;;;;7.60;2.40;;;;;;;12.25;82.68;100415.57;106598;1285;68745;-65
2023/08/11 04:51:59;;;;;;;6.70;2.20;;;;;;;12.35;82.22;100421.55;106602;1285;72545;-67
2023/08/11 04:54:45;;;;;;;9.40;2.30;;;;;;;12.43;81.70;100420.55;106561;1286;57411;-64
2023/08/11 04:57:32;;;;;;;8.00;2.10;;;;;;;12.54;81.25;100421.50;106512;1285;60658;-66
2023/08/11 05:00:18;;;;;;;7.50;1.90;;;;;;;12.65;80.55;100417.39;106635;1285;73291;-64
2023/08/11 05:03:05;;;;;;;8.10;2.30;;;;;;;12.79;80.12;100420.20;106686;1285;69149;-65
2023/08/11 05:05:51;;;;;;;9.10;2.00;;;;;;;12.93;79.48;100417.23;106690;1285;73746;-66
2023/08/11 05:08:37;;;;;;;11.30;2.40;;;;;;;13.11;78.76;100418.27;106641;1285;58746;-67
2023/08/11 05:11:26;;;;;;;7.50;2.20;;;;;;;13.28;78.03;100415.79;106670;1285;61428;-66
2023/08/11 05:14:17;;;;;;;9.60;2.30;;;;;;;13.47;77.28;100413.05;106658;1285;71654;-68
2023/08/11 05:17:04;;;;;;;9.20;2.00;;;;;;;13.63;76.27;100412.20;106687;1285;69087;-65
2023/08/11 05:19:50;;;;;;;8.90;2.20;;;;;;;13.83;76.00;100417.98;106628;1285;71262;-68
2023/08/11 05:22:37;;;;;;;7.80;2.30;;;;;;;14.09;75.05;100414.69;106691;1285;59699;-64
2023/08/11 05:25:23;;;;;;;8.90;2.10;;;;;;;14.47;73.21;100412.07;106681;1286;59529;-64
2023/08/11 05:28:10;;;;;;;9.00;2.10;;;;;;;15.10;70.56;100408.27;106683;1285;71660;-64
2023/08/11 05:30:56;;;;;;;7.80;2.40;;;;;;;15.50;68.15;100405.48;106701;1285;68002;-64
2023/08/11 05:33:42;;;;;;;8.70;2.40;;;;;;;15.51;67.89;100405.23;106658;1285;70564;-63
2023/08/11 05:36:29;;;;;;;8.70;2.00;;;;;;;15.62;67.01;100404.54;106663;1285;58852;-63
2023/08/11 05:39:16;;;;;;;8.00;2.20;;;;;;;15.94;66.01;100407.38;106697;1285;61521;-63
2023/08/11 05:42:03;;;;;;;9.50;2.10;;;;;;;16.89;63.66;100406.54;106705;1285;72955;-64
2023/08/11 05:44:49;;;;;;;7.50;2.20;;;;;;;18.34;60.04;100408.43;106688;1285;68723;-64
2023/08/11 05:47:36;;;;;;;9.70;2.10;;;;;;;19.57;57.22;100404.46;106695;1285;72460;-66
2023/08/11 09:32:22;;;;;;;6.30;1.30;;;;;;;28.77;25.76;100419.44;103173;1288;60826;-62
2023/08/11 09:35:12;;;;;;;6.80;1.60;;;;;;;27.61;27.44;100427.30;105170;1274;72889;-64
2023/08/11 09:38:00;;;;;;;9.90;1.60;;;;;;;27.24;28.19;100429.75;106142;1270;68385;-63
2023/08/11 09:40:48;;;;;;;6.80;1.30;;;;;;;26.79;29.35;100430.13;105127;1270;74287;-63
2023/08/11 09:43:36;;;;;;;6.70;1.30;;;;;;;26.03;30.80;100431.73;104751;1274;59378;-64
2023/08/11 09:46:23;;;;;;;7.90;1.40;;;;;;;25.37;32.53;100435.38;104610;1274;60498;-63
2023/08/11 09:49:15;;;;;;;7.40;1.50;;;;;;;24.66;33.31;100433.59;104816;1272;71873;-62
2023/08/11 09:52:04;;;;;;;6.80;1.60;;;;;;;24.12;34.56;100433.36;105108;1272;67363;-62
2023/08/11 09:54:55;;;;;;;7.60;1.70;;;;;;;23.64;35.47;100440.31;104560;1275;71969;-62
2023/08/11 09:57:43;;;;;;;8.00;1.90;;;;;;;23.10;36.24;100448.80;104835;1272;59610;-61
2023/08/11 10:00:31;;;;;;;8.30;1.90;;;;;;;22.74;36.91;100446.67;104535;1274;61519;-62
2023/08/11 10:03:26;;;;;;;7.10;1.70;;;;;;;22.46;37.84;100445.02;104755;1270;72066;-62
2023/08/11 10:06:21;;;;;;;6.60;1.60;;;;;;;22.33;38.32;100446.95;104594;1270;67276;-62
2023/08/11 10:09:14;;;;;;;5.80;1.50;;;;;;;23.79;36.98;100446.02;104932;1270;74252;-63
2023/08/11 10:12:03;;;;;;;7.40;1.90;;;;;;;24.33;34.91;100439.34;104813;1275;59430;-62
2023/08/11 10:14:51;;;;;;;8.20;1.60;;;;;;;24.08;34.83;100439.50;104981;1268;60597;-61
2023/08/11 10:17:39;;;;;;;8.80;1.60;;;;;;;23.54;35.74;100444.14;105051;1268;71963;-61
2023/08/11 10:20:26;;;;;;;7.80;1.80;;;;;;;23.05;36.56;100446.45;105219;1268;68429;-62
2023/08/11 10:23:15;;;;;;;7.00;1.60;;;;;;;23.90;36.15;100438.86;105036;1267;71928;-63
2023/08/11 10:26:02;;;;;;;7.60;1.50;;;;;;;25.36;33.80;100432.04;105229;1266;59258;-62
2023/08/11 10:28:51;;;;;;;10.40;1.50;;;;;;;26.96;31.44;100432.60;104956;1264;61931;-61
2023/08/11 10:31:54;;;;;;;7.70;1.90;;;;;;;28.06;29.23;100427.96;105410;1268;72206;-63
2023/08/11 10:34:41;;;;;;;5.60;1.30;;;;;;;29.12;27.73;100430.14;105132;1265;69458;-61
2023/08/11 10:37:30;;;;;;;6.90;1.30;;;;;;;30.15;26.40;100427.05;105081;1267;73290;-67
2023/08/11 10:40:17;;;;;;;7.90;1.70;;;;;;;30.95;24.93;100430.27;105064;1268;59364;-63
2023/08/11 10:43:04;;;;;;;6.30;1.40;;;;;;;30.96;24.61;100431.15;105081;1264;60812;-62
2023/08/11 10:45:50;;;;;;;6.50;1.50;;;;;;;28.87;26.34;100435.80;105091;1263;72226;-62
2023/08/11 10:48:37;;;;;;;6.80;1.40;;;;;;;27.41;28.09;100442.02;105009;1269;69845;-63
2023/08/11 10:51:31;;;;;;;6.40;1.40;;;;;;;26.10;30.12;100438.94;105233;1268;73161;-62
2023/08/11 10:54:24;;;;;;;6.80;1.30;;;;;;;25.08;32.31;100445.24;104809;1267;59345;-66
2023/08/11 10:57:11;;;;;;;9.10;1.60;;;;;;;24.26;34.44;100442.27;105358;1263;61084;-61
2023/08/11 10:59:58;;;;;;;7.80;2.00;;;;;;;23.72;35.53;100443.80;105272;1267;70574;-62
2023/08/11 11:02:45;;;;;;;7.60;1.70;;;;;;;23.29;36.24;100446.00;105265;1267;68530;-65
2023/08/11 11:05:32;;;;;;;8.00;1.40;;;;;;;22.89;37.53;100443.38;105033;1263;74245;-61
2023/08/11 11:08:19;;;;;;;7.40;1.40;;;;;;;22.59;37.86;100438.73;105164;1267;59233;-63
2023/08/11 11:11:05;;;;;;;7.80;1.90;;;;;;;23.02;38.26;100445.35;105322;1263;61093;-63
2023/08/11 11:13:52;;;;;;;7.20;2.10;;;;;;;23.98;36.76;100440.19;105347;1267;72836;-62
2023/08/11 11:16:40;;;;;;;9.50;1.80;;;;;;;26.03;33.76;100435.77;104868;1270;69296;-65
2023/08/11 11:19:27;;;;;;;9.30;1.70;;;;;;;27.82;31.16;100436.42;105359;1264;73282;-65
2023/08/11 11:22:14;;;;;;;6.80;1.20;;;;;;;27.96;29.99;100431.77;105324;1270;59392;-62
2023/08/11 11:25:02;;;;;;;6.20;1.50;;;;;;;27.83;29.79;100433.56;105320;1262;60623;-64
2023/08/11 11:27:49;;;;;;;7.50;1.60;;;;;;;28.55;28.62;100427.31;105047;1269;72002;-65
2023/08/11 11:30:37;;;;;;;7.30;1.50;;;;;;;28.67;27.99;100429.98;104999;1267;68450;-63
2023/08/11 11:33:24;;;;;;;8.60;1.40;;;;;;;28.21;28.19;100434.21;105164;1268;73269;-65
2023/08/11 11:36:12;;;;;;;6.10;1.30;;;;;;;28.36;28.90;100431.11;105336;1264;59534;-65
2023/08/11 11:39:00;;;;;;;6.50;1.50;;;;;;;27.70;28.85;100435.94;105429;1259;59974;-66
2023/08/11 11:41:51;;;;;;;6.90;1.60;;;;;;;26.72;29.98;100440.70;105556;1260;70765;-65
2023/08/11 11:44:39;;;;;;;6.60;1.40;;;;;;;25.93;31.57;100441.52;105341;1262;68489;-66
2023/08/11 11:47:27;;;;;;;7.50;1.40;;;;;;;25.31;32.89;100442.98;105557;1261;72428;-61
2023/08/11 11:50:16;;;;;;;11.80;1.50;;;;;;;24.78;34.87;100444.59;105102;1269;59098;-62
2023/08/11 11:53:03;;;;;;;7.20;1.30;;;;;;;24.26;35.07;100443.02;105348;1263;59586;-62
2023/08/11 11:55:52;;;;;;;7.10;1.60;;;;;;;23.79;36.06;100442.99;105371;1261;70619;-62
2023/08/11 11:58:38;;;;;;;7.00;1.40;;;;;;;23.35;37.22;100446.41;105354;1264;68324;-63
2023/08/11 12:01:27;;;;;;;9.40;1.60;;;;;;;22.89;37.94;100442.63;105509;1263;72929;-63
2023/08/11 12:04:15;;;;;;;7.80;1.50;;;;;;;22.61;38.79;100443.75;105330;1258;59800;-63
2023/08/11 12:07:01;;;;;;;8.90;1.80;;;;;;;22.45;39.23;100443.16;105629;1258;61648;-62
2023/08/11 12:09:50;;;;;;;7.90;1.60;;;;;;;22.29;40.20;100439.16;105415;1258;71589;-62
2023/08/11 12:12:37;;;;;;;9.30;1.80;;;;;;;22.19;39.79;100440.20;105311;1259;68328;-63
2023/08/11 12:15:24;;;;;;;7.60;1.70;;;;;;;22.40;40.02;100440.65;105481;1263;74067;-64
2023/08/11 12:18:12;;;;;;;8.70;1.40;;;;;;;22.52;39.41;100441.34;105320;1273;59690;-64
2023/08/11 12:21:01;;;;;;;8.40;1.60;;;;;;;22.85;39.45;100440.66;105336;1264;60736;-63
2023/08/11 12:23:47;;;;;;;7.40;1.50;;;;;;;23.03;38.03;100440.08;105497;1261;71555;-62
2023/08/11 12:26:34;;;;;;;7.50;1.50;;;;;;;23.06;37.94;100436.02;105353;1266;68477;-63
2023/08/11 12:29:21;;;;;;;7.40;1.60;;;;;;;23.15;38.04;100435.17;105150;1264;74094;-64
2023/08/11 12:32:08;;;;;;;8.30;1.50;;;;;;;23.22;37.98;100434.45;105691;1264;59251;-62
2023/08/11 12:34:55;;;;;;;7.00;1.70;;;;;;;23.21;38.49;100433.06;105522;1262;60697;-62
2023/08/11 12:37:42;;;;;;;7.20;1.50;;;;;;;23.16;37.90;100429.78;105368;1262;71949;-63
2023/08/11 12:40:30;;;;;;;8.20;1.80;;;;;;;23.00;38.45;100437.50;105579;1260;68478;-65
2023/08/11 12:43:16;;;;;;;7.80;1.90;;;;;;;22.97;38.72;100441.27;105286;1264;72351;-65
2023/08/11 12:46:03;;;;;;;7.90;1.90;;;;;;;23.03;38.78;100446.13;105526;1260;59299;-66
2023/08/11 12:48:50;;;;;;;9.00;1.70;;;;;;;23.20;39.10;100448.80;105131;1263;60674;-66
2023/08/11 12:51:37;;;;;;;8.40;2.10;;;;;;;23.44;39.39;100451.20;105272;1262;71373;-65
2023/08/11 12:54:24;;;;;;;8.70;1.60;;;;;;;23.62;39.98;100451.23;105553;1263;69241;-62
2023/08/11 12:57:11;;;;;;;7.80;1.70;;;;;;;23.67;40.44;100447.27;105515;1260;74278;-63
2023/08/11 12:59:58;;;;;;;7.10;1.80;;;;;;;23.80;40.86;100445.45;105427;1259;59269;-64
2023/08/11 13:02:48;;;;;;;7.50;1.50;;;;;;;23.85;41.04;100448.52;105496;1261;60974;-62
2023/08/11 13:05:35;;;;;;;7.90;2.10;;;;;;;23.57;41.87;100451.78;105210;1260;73784;-61
2023/08/11 13:08:21;;;;;;;7.80;1.70;;;;;;;23.35;42.51;100451.45;105392;1259;69594;-61
2023/08/11 13:11:09;;;;;;;8.90;2.20;;;;;;;23.17;43.03;100446.30;105335;1263;73980;-61
2023/08/11 13:13:55;;;;;;;13.20;2.40;;;;;;;23.08;43.21;100442.27;105454;1258;59870;-63
2023/08/11 13:16:42;;;;;;;10.20;2.20;;;;;;;22.94;43.94;100442.77;105521;1258;59438;-63
2023/08/11 13:19:29;;;;;;;7.70;2.10;;;;;;;22.80;44.87;100442.52;105507;1259;73618;-64
2023/08/11 13:22:17;;;;;;;7.90;1.80;;;;;;;22.64;44.44;100448.85;105483;1263;69428;-62
2023/08/11 13:25:04;;;;;;;9.80;1.90;;;;;;;22.45;44.62;100448.25;105153;1260;73130;-63
2023/08/11 13:27:51;;;;;;;8.30;1.90;;;;;;;22.54;45.36;100440.63;105096;1264;59337;-63
2023/08/11 13:30:38;;;;;;;7.50;1.70;;;;;;;22.64;45.44;100441.58;105214;1264;60826;-65
2023/08/11 13:33:29;;;;;;;6.90;1.70;;;;;;;22.64;45.68;100435.11;105531;1258;72711;-65
2023/08/11 13:36:16;;;;;;;7.70;2.20;;;;;;;22.70;45.60;100435.60;105683;1261;69401;-64
2023/08/11 13:39:03;;;;;;;9.10;2.00;;;;;;;22.75;45.30;100431.24;105478;1263;71762;-64
2023/08/11 13:41:50;;;;;;;7.50;1.70;;;;;;;22.77;45.26;100436.40;105523;1261;59649;-64
2023/08/11 13:44:36;;;;;;;10.60;1.80;;;;;;;22.69;45.28;100443.89;105576;1262;59925;-63
2023/08/11 13:47:27;;;;;;;7.00;1.90;;;;;;;22.61;45.55;100444.09;105202;1258;72811;-66
2023/08/11 13:50:14;;;;;;;8.90;2.00;;;;;;;22.58;45.68;100444.01;105559;1263;67293;-64
2023/08/11 13:53:01;;;;;;;8.70;1.70;;;;;;;22.57;45.87;100432.10;105545;1263;73013;-66
2023/08/11 13:55:48;;;;;;;12.10;1.90;;;;;;;22.70;46.12;100447.53;105299;1264;59298;-61
2023/08/11 13:58:36;;;;;;;12.10;3.60;;;;;;;22.72;45.89;100445.06;105282;1260;61570;-65
2023/08/11 14:01:22;;;;;;;11.10;1.90;;;;;;;22.76;45.70;100445.73;105178;1262;72841;-64
2023/08/11 14:04:09;;;;;;;7.40;2.10;;;;;;;22.76;45.13;100445.15;105508;1260;68406;-65
2023/08/11 14:06:57;;;;;;;7.70;2.10;;;;;;;22.75;45.41;100446.94;105401;1259;73332;-65
2023/08/11 14:10:00;;;;;;;9.20;1.90;;;;;;;22.80;45.09;100446.66;105473;1263;59164;-66
2023/08/11 14:12:47;;;;;;;7.10;1.90;;;;;;;22.84;45.28;100446.58;105274;1260;61319;-63
2023/08/11 14:15:37;;;;;;;10.10;2.30;;;;;;;22.79;45.35;100447.14;105242;1260;73784;-65
2023/08/11 14:18:25;;;;;;;10.70;2.00;;;;;;;22.75;45.99;100448.44;105201;1260;67224;-66
2023/08/11 14:21:13;;;;;;;8.10;1.90;;;;;;;22.74;45.90;100447.21;105594;1259;73530;-65
2023/08/11 14:24:00;;;;;;;10.30;2.00;;;;;;;22.82;45.93;100444.50;105519;1261;59839;-63
2023/08/11 14:26:47;;;;;;;9.10;1.80;;;;;;;22.78;45.89;100435.91;105365;1264;59388;-64
2023/08/11 14:29:33;;;;;;;7.90;2.00;;;;;;;22.74;46.09;100447.42;105475;1261;72529;-66
2023/08/11 14:32:20;;;;;;;8.40;2.00;;;;;;;22.61;46.19;100445.39;105432;1263;69291;-65
2023/08/11 14:35:12;;;;;;;8.40;2.00;;;;;;;22.49;46.27;100441.27;105322;1261;71024;-66
2023/08/11 14:37:59;;;;;;;8.80;1.60;;;;;;;22.37;46.18;100446.11;105256;1260;59300;-63
2023/08/11 14:40:46;;;;;;;11.30;2.20;;;;;;;22.28;46.58;100447.95;105328;1263;59612;-64
2023/08/11 14:43:34;;;;;;;8.70;1.90;;;;;;;22.02;47.07;100451.74;105623;1260;72788;-64
2023/08/11 14:46:21;;;;;;;8.90;2.10;;;;;;;21.74;47.69;100451.88;105639;1261;69212;-65
2023/08/11 14:49:08;;;;;;;10.00;2.20;;;;;;;21.42;48.26;100454.94;105364;1259;74282;-64
2023/08/11 14:51:54;;;;;;;8.90;1.90;;;;;;;21.15;49.63;100458.02;105467;1260;59362;-63
2023/08/11 14:54:41;;;;;;;8.20;1.60;;;;;;;20.86;50.63;100455.73;105310;1260;61978;-66
2023/08/11 14:57:28;;;;;;;7.80;1.90;;;;;;;20.65;50.94;100460.50;105542;1259;73545;-62
2023/08/11 15:00:15;;;;;;;7.40;1.80;;;;;;;20.47;51.38;100457.66;105643;1262;69361;-64
2023/08/11 15:03:03;;;;;;;7.90;1.80;;;;;;;20.41;51.40;100458.15;105466;1261;73102;-63
2023/08/11 15:05:50;;;;;;;10.90;1.90;;;;;;;20.29;51.63;100463.25;105666;1259;59292;-63
2023/08/11 15:08:37;;;;;;;7.80;2.10;;;;;;;20.18;51.91;100466.73;105697;1259;59326;-64
2023/08/11 15:11:24;;;;;;;11.30;2.40;;;;;;;20.25;51.96;100471.10;105415;1259;72757;-64
2023/08/11 15:14:12;;;;;;;7.80;1.80;;;;;;;20.30;52.28;100471.16;105560;1260;68434;-64
2023/08/11 15:17:00;;;;;;;8.00;2.10;;;;;;;20.31;52.55;100467.01;105467;1260;72975;-64
2023/08/11 15:19:46;;;;;;;7.70;1.60;;;;;;;20.36;51.87;100459.29;105290;1259;59280;-64
2023/08/11 15:22:33;;;;;;;10.10;1.60;;;;;;;20.39;52.01;100450.80;105271;1259;61831;-64
2023/08/11 15:25:20;;;;;;;8.50;2.20;;;;;;;20.46;52.15;100447.90;105414;1260;71334;-64
2023/08/11 15:28:07;;;;;;;9.20;2.10;;;;;;;20.43;51.49;100451.84;105562;1261;68515;-63
2023/08/11 15:30:55;;;;;;;9.10;2.20;;;;;;;20.24;51.76;100454.48;105437;1259;72994;-64
2023/08/11 15:33:41;;;;;;;8.10;2.10;;;;;;;20.15;52.34;100457.25;105257;1262;59457;-64
2023/08/11 15:36:28;;;;;;;8.50;2.10;;;;;;;20.13;52.08;100457.86;105524;1260;61658;-64
2023/08/11 15:39:15;;;;;;;8.90;2.00;;;;;;;20.10;52.73;100454.95;105485;1260;73805;-64
2023/08/11 15:42:02;;;;;;;9.20;1.70;;;;;;;19.97;52.79;100459.65;105085;1264;68654;-63
2023/08/11 15:44:49;;;;;;;9.60;2.50;;;;;;;19.81;53.03;100459.11;105317;1263;73126;-63
2023/08/11 15:47:36;;;;;;;16.40;2.20;;;;;;;19.78;53.33;100461.03;105463;1264;59497;-63
2023/08/11 15:50:23;;;;;;;10.70;2.00;;;;;;;19.79;53.22;100460.21;105584;1260;60911;-64
2023/08/11 15:53:09;;;;;;;10.10;2.20;;;;;;;19.82;53.49;100465.77;105628;1260;72648;-62
2023/08/11 15:55:56;;;;;;;11.20;2.70;;;;;;;19.87;53.74;100465.02;105484;1263;68483;-66
2023/08/11 15:58:43;;;;;;;13.70;2.50;;;;;;;19.90;53.52;100460.95;105601;1260;73220;-63
2023/08/11 16:01:31;;;;;;;17.00;2.50;;;;;;;19.90;53.44;100458.81;105458;1259;59238;-63
2023/08/11 16:04:18;;;;;;;8.70;2.40;;;;;;;19.89;53.86;100457.23;105355;1265;61697;-64
2023/08/11 16:07:06;;;;;;;11.10;3.10;;;;;;;19.92;53.94;100450.91;105333;1262;73101;-65
2023/08/11 16:09:53;;;;;;;13.00;3.10;;;;;;;19.91;53.60;100450.01;105587;1259;68330;-65
2023/08/11 16:12:39;;;;;;;10.30;3.00;;;;;;;19.88;53.84;100452.48;105282;1259;72366;-63
2023/08/11 16:15:26;;;;;;;9.90;2.00;;;;;;;19.81;54.00;100454.35;105390;1263;59282;-64
2023/08/11 16:18:13;;;;;;;9.10;2.00;;;;;;;19.71;53.48;100454.52;105348;1260;61858;-63
2023/08/11 16:21:03;;;;;;;12.50;2.10;;;;;;;19.62;53.24;100452.70;105397;1260;73053;-62
2023/08/11 16:23:49;;;;;;;10.20;1.70;;;;;;;19.57;53.76;100457.86;105467;1259;68519;-62
2023/08/11 16:26:36;;;;;;;10.70;2.60;;;;;;;19.53;53.52;100460.33;105420;1264;74227;-64
2023/08/11 16:29:23;;;;;;;9.40;1.90;;;;;;;19.48;53.77;100457.05;105490;1264;59728;-62